createdAt,value
2019-01-14T00:00:50.115Z,6.12
2019-01-14T00:03:17.729Z,6.08
2019-01-14T00:05:45.351Z,6.03
2019-01-14T00:08:13.309Z,6.01
2019-01-14T00:10:40.916Z,5.95
2019-01-14T00:13:08.838Z,5.94
2019-01-14T00:15:36.806Z,5.82
2019-01-14T00:18:04.775Z,5.87
2019-01-14T00:20:32.388Z,5.80
2019-01-14T00:23:00.021Z,5.95
2019-01-14T00:25:27.964Z,5.95
2019-01-14T00:27:55.952Z,5.96
2019-01-14T00:30:23.915Z,6.00
2019-01-14T00:32:51.880Z,6.01
2019-01-14T00:35:19.862Z,6.06
2019-01-14T00:37:47.484Z,6.06
2019-01-14T00:40:15.376Z,6.08
2019-01-14T00:42:43.444Z,6.11
2019-01-14T00:45:11.061Z,6.14
2019-01-14T00:47:38.679Z,6.11
2019-01-14T00:50:06.296Z,6.11
2019-01-14T00:52:33.924Z,6.15
2019-01-14T00:55:01.552Z,6.19
2019-01-14T00:57:29.522Z,6.13
2019-01-14T00:59:57.509Z,5.83
2019-01-14T01:02:25.135Z,5.49
2019-01-14T01:04:53.025Z,5.32
2019-01-14T01:07:20.991Z,5.13
2019-01-14T01:09:48.964Z,5.00
2019-01-14T01:12:16.591Z,5.00
2019-01-14T01:14:44.497Z,4.93
2019-01-14T01:17:12.126Z,5.21
2019-01-14T01:19:40.022Z,5.38
2019-01-14T01:22:07.994Z,5.54
2019-01-14T01:24:35.958Z,5.57
2019-01-14T01:27:03.930Z,5.52
2019-01-14T01:29:31.638Z,5.53
2019-01-14T01:31:59.262Z,5.51
2019-01-14T01:34:27.225Z,5.38
2019-01-14T01:36:57.753Z,5.30
2019-01-14T01:39:24.800Z,5.19
2019-01-14T01:41:52.803Z,5.18
2019-01-14T01:44:20.427Z,5.21
2019-01-14T01:46:48.049Z,5.21
2019-01-14T01:49:15.960Z,5.21
2019-01-14T01:51:43.575Z,5.17
2019-01-14T01:54:11.207Z,5.17
2019-01-14T01:56:39.153Z,5.22
2019-01-14T01:59:06.778Z,5.20
2019-01-14T02:01:34.689Z,5.27
2019-01-14T02:04:02.657Z,5.26
2019-01-14T02:06:30.630Z,5.29
2019-01-14T02:08:58.261Z,5.33
2019-01-14T02:11:25.884Z,5.31
2019-01-14T02:13:53.817Z,5.24
2019-01-14T02:16:21.805Z,5.10
2019-01-14T02:18:49.761Z,5.05
2019-01-14T02:21:17.378Z,5.00
2019-01-14T02:23:45.000Z,5.03
2019-01-14T02:26:12.627Z,5.07
2019-01-14T02:28:40.613Z,5.12
2019-01-14T02:31:08.579Z,5.17
2019-01-14T02:33:36.551Z,5.12
2019-01-14T02:36:04.747Z,5.18
2019-01-14T02:38:32.792Z,5.18
2019-01-14T02:41:00.416Z,5.15
2019-01-14T02:43:28.033Z,5.14
2019-01-14T02:45:56.044Z,5.12
2019-01-14T02:48:23.622Z,5.09
2019-01-14T02:50:51.523Z,5.04
2019-01-14T02:53:19.153Z,5.06
2019-01-14T02:55:47.049Z,5.05
2019-01-14T02:58:14.690Z,4.99
2019-01-14T03:00:42.579Z,4.99
2019-01-14T03:03:10.549Z,4.93
2019-01-14T03:05:38.162Z,4.94
2019-01-14T03:08:06.079Z,4.91
2019-01-14T03:10:34.053Z,4.87
2019-01-14T03:13:02.014Z,4.90
2019-01-14T03:15:29.990Z,4.81
2019-01-14T03:17:57.613Z,4.82
2019-01-14T03:20:25.248Z,4.83
2019-01-14T03:22:52.886Z,4.76
2019-01-14T03:25:20.519Z,4.78
2019-01-14T03:27:48.405Z,4.79
2019-01-14T03:30:16.044Z,4.72
2019-01-14T03:32:43.950Z,4.66
2019-01-14T03:35:12.002Z,4.69
2019-01-14T03:37:39.628Z,4.67
2019-01-14T03:40:07.532Z,4.65
2019-01-14T03:42:35.156Z,4.64
2019-01-14T03:45:02.867Z,4.64
2019-01-14T03:47:31.133Z,4.61
2019-01-14T03:49:59.105Z,4.64
2019-01-14T03:52:26.727Z,4.61
2019-01-14T03:54:54.358Z,4.59
2019-01-14T03:57:22.303Z,4.59
2019-01-14T03:59:50.289Z,4.57
2019-01-14T04:02:18.233Z,4.57
2019-01-14T04:04:45.871Z,4.55
2019-01-14T04:07:14.060Z,4.53
2019-01-14T04:09:42.050Z,4.53
2019-01-14T04:12:10.010Z,4.49
2019-01-14T04:14:37.983Z,4.45
2019-01-14T04:17:05.975Z,4.42
2019-01-14T04:19:33.937Z,4.44
2019-01-14T04:22:01.883Z,4.39
2019-01-14T04:24:29.857Z,4.44
2019-01-14T04:26:57.488Z,4.37
2019-01-14T04:29:25.117Z,4.37
2019-01-14T04:31:53.071Z,4.37
2019-01-14T04:34:21.030Z,4.33
2019-01-14T04:36:48.650Z,4.33
2019-01-14T04:39:16.355Z,4.31
2019-01-14T04:41:43.982Z,4.28
2019-01-14T04:44:11.874Z,4.23
2019-01-14T04:46:39.852Z,4.26
2019-01-14T04:49:07.816Z,4.18
2019-01-14T04:51:35.785Z,4.17
2019-01-14T04:54:03.755Z,4.17
2019-01-14T04:56:31.722Z,4.17
2019-01-14T04:58:59.360Z,4.16
2019-01-14T05:01:26.979Z,4.11
2019-01-14T05:03:54.614Z,4.11
2019-01-14T05:06:22.574Z,4.13
2019-01-14T05:08:50.552Z,4.06
2019-01-14T05:11:18.518Z,4.09
2019-01-14T05:13:46.138Z,4.04
2019-01-14T05:16:14.051Z,4.00
2019-01-14T05:18:42.014Z,3.97
2019-01-14T05:21:09.664Z,3.99
2019-01-14T05:23:37.298Z,3.98
2019-01-14T05:26:04.916Z,3.90
2019-01-14T05:28:32.972Z,3.91
2019-01-14T05:31:00.614Z,3.90
2019-01-14T05:33:28.502Z,3.84
2019-01-14T05:35:56.138Z,3.85
2019-01-14T05:38:24.035Z,3.84
2019-01-14T05:40:52.015Z,3.81
2019-01-14T05:43:19.977Z,3.76
2019-01-14T05:45:47.939Z,3.65
2019-01-14T05:48:15.910Z,3.59
2019-01-14T05:50:43.902Z,3.61
2019-01-14T05:53:11.853Z,3.51
2019-01-14T05:55:39.847Z,3.47
2019-01-14T05:58:07.467Z,3.40
2019-01-14T06:00:43.104Z,3.43
2019-01-14T06:03:10.997Z,3.26
2019-01-14T06:05:38.992Z,3.28
2019-01-14T06:08:06.622Z,3.22
2019-01-14T06:10:34.603Z,3.18
2019-01-14T06:13:02.576Z,3.24
2019-01-14T06:15:30.538Z,3.20
2019-01-14T06:17:58.510Z,3.24
2019-01-14T06:20:28.548Z,3.18
2019-01-14T06:22:56.518Z,3.20
2019-01-14T06:25:24.154Z,3.20
2019-01-14T06:27:51.775Z,3.16
2019-01-14T06:30:19.469Z,3.17
2019-01-14T06:32:47.357Z,3.19
2019-01-14T06:35:15.327Z,3.04
2019-01-14T06:37:42.952Z,3.06
2019-01-14T06:40:10.851Z,3.06
2019-01-14T06:42:38.483Z,3.07
2019-01-14T06:45:06.377Z,2.99
2019-01-14T06:47:34.348Z,2.97
2019-01-14T06:50:01.983Z,3.00
2019-01-14T06:52:29.599Z,3.00
2019-01-14T06:54:57.558Z,2.98
2019-01-14T06:57:25.182Z,3.05
2019-01-14T06:59:53.084Z,3.05
2019-01-14T07:02:20.717Z,3.11
2019-01-14T07:04:48.603Z,3.07
2019-01-14T07:07:16.569Z,3.02
2019-01-14T07:09:44.195Z,3.05
2019-01-14T07:12:12.100Z,3.07
2019-01-14T07:14:40.893Z,3.11
2019-01-14T07:17:08.527Z,3.13
2019-01-14T07:19:36.420Z,3.32
2019-01-14T07:22:04.410Z,3.22
2019-01-14T07:24:32.357Z,3.25
2019-01-14T07:27:00.337Z,3.20
2019-01-14T07:29:28.297Z,3.21
2019-01-14T07:31:56.264Z,3.15
2019-01-14T07:34:23.886Z,3.21
2019-01-14T07:36:51.795Z,3.20
2019-01-14T07:39:19.418Z,3.19
2019-01-14T07:41:47.049Z,3.16
2019-01-14T07:44:14.987Z,2.97
2019-01-14T07:46:42.623Z,2.70
2019-01-14T07:49:10.240Z,2.63
2019-01-14T07:51:38.281Z,2.69
2019-01-14T07:54:06.252Z,2.70
2019-01-14T07:56:34.321Z,2.87
2019-01-14T07:59:02.295Z,2.98
2019-01-14T08:01:30.262Z,3.15
2019-01-14T08:03:58.229Z,3.32
2019-01-14T08:06:25.861Z,3.44
2019-01-14T08:08:55.847Z,3.50
2019-01-14T08:11:23.777Z,3.54
2019-01-14T08:13:51.406Z,3.55
2019-01-14T08:16:19.312Z,3.54
2019-01-14T08:18:47.279Z,3.54
2019-01-14T08:21:15.250Z,3.56
2019-01-14T08:23:42.866Z,3.52
2019-01-14T08:26:10.780Z,3.46
2019-01-14T08:28:38.404Z,3.42
2019-01-14T08:31:06.315Z,3.41
2019-01-14T08:33:34.278Z,3.36
2019-01-14T08:36:01.903Z,3.38
2019-01-14T08:38:29.825Z,3.31
2019-01-14T08:40:58.698Z,3.36
2019-01-14T08:43:28.220Z,3.37
2019-01-14T08:45:57.048Z,3.52
2019-01-14T08:48:24.675Z,3.57
2019-01-14T08:50:52.634Z,3.52
2019-01-14T08:53:20.247Z,3.49
2019-01-14T08:55:47.878Z,3.45
2019-01-14T08:58:15.820Z,3.48
2019-01-14T09:00:43.466Z,3.55
2019-01-14T09:03:11.092Z,3.62
2019-01-14T09:05:38.710Z,3.55
2019-01-14T09:08:06.340Z,3.52
2019-01-14T09:10:34.233Z,3.48
2019-01-14T09:13:01.856Z,3.48
2019-01-14T09:15:29.817Z,3.52
2019-01-14T09:18:02.608Z,3.58
2019-01-14T09:20:27.338Z,3.71
2019-01-14T09:22:54.971Z,3.52
2019-01-14T09:25:22.592Z,3.63
2019-01-14T09:27:50.296Z,3.80
2019-01-14T09:30:17.925Z,4.13
2019-01-14T09:32:45.555Z,3.91
2019-01-14T09:35:13.519Z,3.79
2019-01-14T09:37:41.489Z,3.69
2019-01-14T09:40:09.557Z,3.58
2019-01-14T09:42:37.193Z,3.57
2019-01-14T09:45:05.053Z,3.63
2019-01-14T09:47:32.958Z,3.55
2019-01-14T09:50:00.941Z,3.62
2019-01-14T09:52:28.912Z,3.57
2019-01-14T09:54:56.529Z,3.59
2019-01-14T09:57:24.175Z,3.59
2019-01-14T09:59:52.089Z,3.58
2019-01-14T10:02:20.061Z,3.57
2019-01-14T10:04:47.683Z,3.64
2019-01-14T10:07:15.312Z,3.67
2019-01-14T10:09:43.249Z,3.71
2019-01-14T10:12:11.221Z,3.87
2019-01-14T10:14:39.188Z,3.88
2019-01-14T10:17:07.167Z,3.79
2019-01-14T10:19:34.782Z,3.73
2019-01-14T10:22:02.435Z,3.77
2019-01-14T10:24:30.049Z,3.63
2019-01-14T10:26:58.017Z,3.58
2019-01-14T10:29:25.630Z,3.66
2019-01-14T10:31:53.541Z,3.66
2019-01-14T10:34:21.515Z,3.65
2019-01-14T10:36:49.147Z,3.53
2019-01-14T10:39:17.106Z,3.59
2019-01-14T10:41:44.925Z,3.66
2019-01-14T10:44:12.492Z,3.71
2019-01-14T10:46:40.463Z,3.60
2019-01-14T10:49:08.405Z,3.57
2019-01-14T10:51:36.378Z,3.64
2019-01-14T10:54:04.344Z,3.72
2019-01-14T10:56:32.315Z,3.95
2019-01-14T10:58:59.948Z,4.02
2019-01-14T11:01:27.858Z,4.18
2019-01-14T11:03:55.815Z,4.01
2019-01-14T11:06:23.438Z,3.94
2019-01-14T11:08:57.364Z,4.07
2019-01-14T11:11:20.745Z,4.02
2019-01-14T11:13:48.725Z,4.07
2019-01-14T11:16:16.705Z,4.01
2019-01-14T11:18:46.397Z,4.00
2019-01-14T11:21:14.508Z,3.92
2019-01-14T11:23:42.219Z,3.99
2019-01-14T11:26:10.103Z,3.89
2019-01-14T11:28:37.723Z,4.09
2019-01-14T11:31:06.857Z,4.14
2019-01-14T11:33:34.846Z,4.30
2019-01-14T11:36:02.462Z,4.16
2019-01-14T11:38:30.361Z,4.15
2019-01-14T11:40:58.330Z,3.93
2019-01-14T11:43:25.968Z,3.94
2019-01-14T11:45:53.861Z,3.90
2019-01-14T11:48:21.830Z,3.77
2019-01-14T11:50:49.807Z,3.78
2019-01-14T11:53:17.767Z,3.71
2019-01-14T11:55:45.738Z,3.70
2019-01-14T11:58:13.366Z,3.65
2019-01-14T12:00:41.264Z,3.60
2019-01-14T12:03:09.237Z,3.57
2019-01-14T12:05:36.854Z,3.34
2019-01-14T12:08:04.766Z,3.24
2019-01-14T12:10:32.391Z,3.23
2019-01-14T12:13:00.300Z,3.30
2019-01-14T12:15:28.267Z,3.50
2019-01-14T12:17:56.238Z,3.70
2019-01-14T12:20:24.222Z,3.97
2019-01-14T12:22:52.174Z,4.02
2019-01-14T12:25:20.011Z,4.15
2019-01-14T12:27:48.120Z,4.21
2019-01-14T12:30:15.742Z,4.57
2019-01-14T12:32:43.646Z,4.04
2019-01-14T12:35:11.508Z,3.41
2019-01-14T12:37:39.482Z,2.66
2019-01-14T12:40:07.450Z,2.32
2019-01-14T12:42:35.417Z,2.03
2019-01-14T12:45:03.028Z,2.03
2019-01-14T12:47:30.670Z,1.87
2019-01-14T12:49:58.609Z,1.97
2019-01-14T12:52:26.231Z,1.83
2019-01-14T12:54:53.852Z,1.73
2019-01-14T12:57:21.804Z,1.81
2019-01-14T12:59:49.431Z,1.81
2019-01-14T13:02:17.333Z,1.88
2019-01-14T13:04:44.963Z,2.00
2019-01-14T13:07:12.870Z,2.12
2019-01-14T13:09:40.516Z,2.33
2019-01-14T13:12:08.129Z,2.42
2019-01-14T13:14:36.053Z,2.39
2019-01-14T13:17:04.027Z,2.33
2019-01-14T13:19:32.015Z,2.43
2019-01-14T13:21:59.984Z,2.45
2019-01-14T13:24:27.934Z,2.30
2019-01-14T13:26:55.901Z,2.40
2019-01-14T13:29:23.525Z,2.42
2019-01-14T13:31:51.157Z,2.46
2019-01-14T13:34:18.780Z,2.07
2019-01-14T13:36:46.766Z,1.67
2019-01-14T13:39:14.727Z,1.34
2019-01-14T13:41:42.698Z,1.21
2019-01-14T13:44:10.317Z,1.20
2019-01-14T13:46:38.229Z,1.31
2019-01-14T13:49:06.194Z,1.42
2019-01-14T13:51:34.170Z,1.70
2019-01-14T13:54:02.133Z,1.91
2019-01-14T13:56:30.001Z,2.00
2019-01-14T13:58:57.976Z,2.04
2019-01-14T14:01:25.959Z,2.05
2019-01-14T14:03:53.909Z,2.12
2019-01-14T14:06:21.879Z,2.08
2019-01-14T14:08:49.851Z,2.13
2019-01-14T14:11:17.818Z,2.07
2019-01-14T14:13:45.514Z,2.01
2019-01-14T14:16:13.128Z,1.69
2019-01-14T14:18:41.008Z,1.19
2019-01-14T14:21:08.636Z,0.68
2019-01-14T14:23:36.254Z,0.26
2019-01-14T14:26:04.204Z,0.13
2019-01-14T14:28:32.175Z,0.15
2019-01-14T14:31:00.047Z,0.20
2019-01-14T14:33:27.669Z,0.30
2019-01-14T14:35:55.571Z,0.28
2019-01-14T14:38:23.192Z,0.36
2019-01-14T14:40:50.814Z,0.41
2019-01-14T14:43:18.435Z,0.61
2019-01-14T14:45:46.328Z,0.63
2019-01-14T14:48:14.290Z,0.65
2019-01-14T14:50:42.268Z,0.64
2019-01-14T14:53:10.027Z,0.70
2019-01-14T14:55:37.647Z,0.70
2019-01-14T14:58:05.259Z,0.76
2019-01-14T15:00:33.220Z,0.76
2019-01-14T15:03:01.204Z,0.86
2019-01-14T15:05:29.157Z,0.93
2019-01-14T15:07:56.854Z,1.00
2019-01-14T15:10:24.492Z,1.10
2019-01-14T15:12:52.449Z,1.12
2019-01-14T15:15:22.469Z,1.33
2019-01-14T15:17:50.336Z,1.32
2019-01-14T15:20:18.307Z,1.42
2019-01-14T15:22:45.927Z,1.46
2019-01-14T15:25:13.834Z,1.49
2019-01-14T15:27:41.804Z,1.51
2019-01-14T15:30:09.775Z,1.55
2019-01-14T15:32:37.642Z,1.51
2019-01-14T15:35:05.613Z,1.57
2019-01-14T15:37:33.229Z,1.48
2019-01-14T15:40:04.409Z,1.47
2019-01-14T15:42:30.547Z,1.42
2019-01-14T15:44:58.177Z,1.38
2019-01-14T15:47:26.073Z,1.32
2019-01-14T15:49:53.691Z,1.26
2019-01-14T15:52:21.301Z,1.17
2019-01-14T15:54:48.918Z,1.10
2019-01-14T15:57:16.534Z,1.09
2019-01-14T15:59:44.493Z,1.06
2019-01-14T16:02:12.104Z,0.97
2019-01-14T16:04:40.020Z,0.98
2019-01-14T16:07:07.634Z,0.94
2019-01-14T16:09:35.568Z,0.95
2019-01-14T16:12:03.516Z,0.83
2019-01-14T16:14:31.488Z,0.86
2019-01-14T16:16:59.352Z,0.82
2019-01-14T16:19:27.326Z,0.76
2019-01-14T16:21:54.936Z,0.73
2019-01-14T16:24:22.853Z,0.74
2019-01-14T16:26:50.466Z,0.68
2019-01-14T16:29:18.086Z,0.72
2019-01-14T16:31:46.046Z,0.66
2019-01-14T16:34:13.671Z,0.66
2019-01-14T16:36:41.308Z,0.71
2019-01-14T16:39:08.924Z,0.60
2019-01-14T16:41:36.543Z,0.73
2019-01-14T16:44:04.466Z,0.71
2019-01-14T16:46:32.092Z,0.70
2019-01-14T16:48:59.991Z,0.71
2019-01-14T16:51:27.960Z,0.95
2019-01-14T16:53:55.930Z,0.94
2019-01-14T16:56:23.898Z,0.79
2019-01-14T16:58:51.519Z,0.78
2019-01-14T17:01:19.434Z,0.73
2019-01-14T17:03:47.401Z,0.87
2019-01-14T17:06:15.365Z,0.87
2019-01-14T17:08:43.336Z,0.84
2019-01-14T17:11:11.308Z,0.81
2019-01-14T17:13:38.922Z,0.83
2019-01-14T17:16:06.836Z,0.76
2019-01-14T17:18:34.700Z,0.79
2019-01-14T17:21:02.323Z,0.76
2019-01-14T17:23:30.232Z,0.65
2019-01-14T17:25:57.859Z,0.57
2019-01-14T17:28:25.784Z,0.68
2019-01-14T17:30:53.733Z,0.71
2019-01-14T17:33:21.605Z,0.53
2019-01-14T17:35:49.221Z,0.54
2019-01-14T17:38:17.132Z,0.72
2019-01-14T17:40:45.098Z,0.54
2019-01-14T17:43:12.714Z,0.59
2019-01-14T17:45:40.335Z,0.61
2019-01-14T17:48:07.950Z,0.57
2019-01-14T17:50:36.071Z,0.57
2019-01-14T17:53:03.920Z,0.63
2019-01-14T17:55:31.894Z,0.56
2019-01-14T17:57:59.514Z,0.63
2019-01-14T18:00:27.423Z,0.50
2019-01-14T18:02:55.043Z,0.50
2019-01-14T18:05:22.667Z,0.56
2019-01-14T18:07:50.284Z,0.45
2019-01-14T18:10:18.946Z,0.50
2019-01-14T18:12:46.864Z,0.50
2019-01-14T18:15:14.492Z,0.56
2019-01-14T18:17:42.105Z,0.53
2019-01-14T18:20:09.737Z,0.59
2019-01-14T18:22:37.716Z,0.50
2019-01-14T18:25:05.333Z,0.46
2019-01-14T18:27:32.958Z,0.52
2019-01-14T18:30:00.905Z,0.42
2019-01-14T18:32:28.557Z,0.41
2019-01-14T18:34:56.178Z,0.32
2019-01-14T18:37:24.119Z,0.28
2019-01-14T18:39:51.802Z,0.34
2019-01-14T18:42:19.432Z,0.45
2019-01-14T18:44:47.051Z,0.33
2019-01-14T18:47:14.954Z,0.39
2019-01-14T18:49:42.922Z,0.38
2019-01-14T18:52:10.909Z,0.42
2019-01-14T18:54:38.863Z,0.43
2019-01-14T18:57:06.830Z,0.45
2019-01-14T18:59:34.799Z,0.37
2019-01-14T19:02:02.772Z,0.45
2019-01-14T19:04:30.741Z,0.52
2019-01-14T19:06:58.613Z,0.55
2019-01-14T19:09:26.229Z,0.50
2019-01-14T19:11:53.918Z,0.44
2019-01-14T19:14:21.805Z,0.40
2019-01-14T19:16:49.772Z,0.45
2019-01-14T19:19:17.742Z,0.39
2019-01-14T19:21:45.708Z,0.28
2019-01-14T19:24:13.679Z,0.23
2019-01-14T19:26:41.666Z,0.26
2019-01-14T19:29:09.613Z,0.35
2019-01-14T19:31:37.593Z,0.33
2019-01-14T19:34:05.557Z,0.43
2019-01-14T19:36:33.524Z,0.48
2019-01-14T19:39:01.141Z,0.40
2019-01-14T19:41:29.052Z,0.48
2019-01-14T19:43:56.666Z,0.40
2019-01-14T19:46:24.585Z,0.41
2019-01-14T19:48:52.453Z,0.49
2019-01-14T19:51:20.424Z,0.42
2019-01-14T19:53:48.290Z,0.38
2019-01-14T19:56:16.262Z,0.32
2019-01-14T19:58:44.125Z,0.38
2019-01-14T20:01:12.113Z,0.40
2019-01-14T20:03:39.734Z,0.45
2019-01-14T20:06:07.649Z,0.49
2019-01-14T20:08:35.594Z,0.46
2019-01-14T20:11:09.149Z,0.53
2019-01-14T20:13:33.292Z,0.53
2019-01-14T20:16:00.901Z,0.50
2019-01-14T20:18:28.807Z,0.44
2019-01-14T20:20:56.881Z,0.48
2019-01-14T20:23:24.844Z,0.58
2019-01-14T20:25:52.466Z,0.57
2019-01-14T20:28:20.099Z,0.60
2019-01-14T20:30:48.043Z,0.62
2019-01-14T20:33:15.664Z,0.63
2019-01-14T20:35:43.354Z,0.65
2019-01-14T20:38:11.232Z,0.62
2019-01-14T20:40:38.844Z,0.69
2019-01-14T20:43:06.778Z,0.65
2019-01-14T20:45:34.396Z,0.68
2019-01-14T20:48:02.294Z,0.66
2019-01-14T20:50:30.160Z,0.71
2019-01-14T20:52:58.136Z,0.75
2019-01-14T20:55:26.097Z,0.77
2019-01-14T20:57:54.066Z,0.78
2019-01-14T21:00:23.367Z,0.76
2019-01-14T21:02:50.992Z,0.75
2019-01-14T21:05:19.416Z,0.81
2019-01-14T21:07:47.378Z,0.84
2019-01-14T21:10:15.350Z,0.79
2019-01-14T21:12:43.316Z,0.84
2019-01-14T21:15:11.285Z,0.80
2019-01-14T21:17:39.255Z,0.90
2019-01-14T21:20:07.226Z,0.83
2019-01-14T21:22:35.197Z,0.80
2019-01-14T21:25:03.083Z,0.81
2019-01-14T21:27:30.705Z,0.84
2019-01-14T21:29:58.315Z,0.90
2019-01-14T21:32:25.949Z,0.88
2019-01-14T21:34:53.556Z,0.89
2019-01-14T21:37:21.476Z,0.94
2019-01-14T21:39:49.092Z,0.92
2019-01-14T21:42:17.028Z,0.93
2019-01-14T21:44:44.980Z,0.95
2019-01-14T21:47:12.613Z,0.95
2019-01-14T21:49:40.505Z,0.97
2019-01-14T21:52:08.477Z,0.96
2019-01-14T21:54:36.447Z,0.91
2019-01-14T21:57:04.415Z,0.94
2019-01-14T21:59:32.390Z,0.94
2019-01-14T22:02:00.334Z,0.98
2019-01-14T22:04:28.238Z,1.02
2019-01-14T22:06:55.870Z,1.00
2019-01-14T22:09:23.472Z,0.98
2019-01-14T22:11:51.418Z,0.96
2019-01-14T22:14:19.381Z,1.00
2019-01-14T22:16:47.376Z,1.00
2019-01-14T22:19:15.003Z,0.94
2019-01-14T22:21:42.881Z,0.95
2019-01-14T22:24:10.857Z,0.97
2019-01-14T22:26:38.467Z,0.96
2019-01-14T22:29:06.091Z,1.02
2019-01-14T22:31:33.717Z,0.98
2019-01-14T22:34:01.620Z,1.04
2019-01-14T22:36:29.578Z,1.01
2019-01-14T22:38:57.562Z,1.02
2019-01-14T22:41:25.529Z,1.09
2019-01-14T22:43:53.486Z,1.09
2019-01-14T22:46:21.096Z,1.10
2019-01-14T22:48:49.029Z,1.14
2019-01-14T22:51:16.639Z,1.12
2019-01-14T22:53:44.542Z,1.12
2019-01-14T22:56:12.511Z,1.13
2019-01-14T22:58:40.481Z,1.12
2019-01-14T23:01:15.720Z,1.13
2019-01-14T23:03:43.347Z,1.13
2019-01-14T23:06:11.250Z,1.14
2019-01-14T23:08:38.876Z,1.15
2019-01-14T23:11:06.782Z,1.13
2019-01-14T23:13:34.749Z,1.19
2019-01-14T23:16:02.727Z,1.17
2019-01-14T23:18:30.706Z,1.14
2019-01-14T23:20:58.656Z,1.21
2019-01-14T23:23:26.289Z,1.18
2019-01-14T23:25:53.991Z,1.17
2019-01-14T23:28:21.957Z,1.19
2019-01-14T23:30:49.932Z,1.27
2019-01-14T23:33:17.553Z,1.26
2019-01-14T23:35:45.165Z,1.24
2019-01-14T23:38:13.113Z,1.29
2019-01-14T23:40:40.730Z,1.31
2019-01-14T23:43:08.662Z,1.30
2019-01-14T23:45:36.612Z,1.36
2019-01-14T23:48:04.236Z,1.33
2019-01-14T23:50:31.854Z,1.34
2019-01-14T23:52:59.474Z,1.37
2019-01-14T23:55:27.370Z,1.43
2019-01-14T23:57:54.998Z,1.40
